Time;durP1;ratioP1;P1;durP2;ratioP2;P2;SDS_P1;SDS_P2;PMS_P1;PMS_P2;Temp;Humidity;BMP_temperature;BMP_pressure;BME280_temperature;BME280_humidity;BME280_pressure;Samples;Min_cycle;Max_cycle;Signal;HPM_P1;HPM_P2
2022/10/19 00:01:03;;;;;;;15.63;6.20;;;;;;;23.24;90.46;99571.94;6208906;23;20054;-89
2022/10/19 00:03:29;;;;;;;17.13;6.10;;;;;;;23.76;91.94;99568.53;6202528;23;20119;-89
2022/10/19 00:05:55;;;;;;;19.33;6.55;;;;;;;24.67;88.14;99573.63;6208508;23;20453;-90
2022/10/19 00:08:20;;;;;;;18.23;5.93;;;;;;;23.87;90.76;99573.31;6208294;23;20012;-90
2022/10/19 00:10:45;;;;;;;20.00;6.95;;;;;;;22.96;92.95;99575.03;6206142;23;20005;-90
2022/10/19 00:13:11;;;;;;;14.32;5.82;;;;;;;23.66;92.45;99584.09;6235938;23;20008;-89
2022/10/19 00:15:40;;;;;;;15.73;5.80;;;;;;;24.13;89.94;99587.97;6208683;23;20620;-89
2022/10/19 00:18:07;;;;;;;16.02;5.18;;;;;;;22.62;94.96;99589.91;6208780;23;20012;-88
2022/10/19 00:20:34;;;;;;;16.92;5.60;;;;;;;22.56;95.13;99590.16;6202336;23;20017;-89
2022/10/19 00:22:59;;;;;;;13.85;4.63;;;;;;;23.22;93.13;99589.78;6236092;23;20075;-89
2022/10/19 00:25:25;;;;;;;15.85;4.82;;;;;;;24.06;90.35;99586.56;6232712;23;20639;-89
2022/10/19 00:27:50;;;;;;;12.65;4.63;;;;;;;22.67;94.02;99587.88;6235162;23;20039;-90
2022/10/19 00:30:16;;;;;;;14.13;4.75;;;;;;;23.72;92.34;99588.25;6237051;23;20004;-89
2022/10/19 00:32:42;;;;;;;13.13;4.90;;;;;;;23.32;91.88;99588.41;6237530;23;20004;-89
2022/10/19 00:35:07;;;;;;;12.60;4.57;;;;;;;23.68;90.48;99584.03;6233940;23;20353;-89
2022/10/19 00:37:33;;;;;;;13.98;4.57;;;;;;;23.85;91.33;99576.06;6234777;23;20227;-89
2022/10/19 00:39:58;;;;;;;13.07;4.00;;;;;;;23.23;91.30;99578.22;6208787;23;20008;-89
2022/10/19 00:42:24;;;;;;;13.55;4.60;;;;;;;23.93;90.79;99574.81;6209386;23;20024;-90
2022/10/19 00:44:49;;;;;;;12.98;3.45;;;;;;;24.13;88.11;99573.78;6236793;23;20004;-90
2022/10/19 00:47:17;;;;;;;12.13;3.85;;;;;;;24.51;86.27;99560.25;6208758;23;20422;-90
2022/10/19 00:49:45;;;;;;;12.30;3.50;;;;;;;23.28;90.24;99559.34;6234714;23;20016;-90
2022/10/19 00:52:16;;;;;;;9.27;3.50;;;;;;;25.01;85.72;99558.41;6209547;23;20011;-90
2022/10/19 00:54:44;;;;;;;10.85;3.70;;;;;;;25.54;81.98;99553.69;6210747;23;20099;-89
2022/10/19 00:57:11;;;;;;;11.77;3.47;;;;;;;25.05;83.83;99557.28;6234058;23;20000;-89
2022/10/19 00:59:40;;;;;;;10.23;3.00;;;;;;;23.32;87.28;99563.59;6235839;23;20027;-89
2022/10/19 01:02:06;;;;;;;15.70;3.22;;;;;;;24.74;84.46;99552.81;6234444;23;20007;-89
2022/10/19 01:04:35;;;;;;;10.63;2.85;;;;;;;24.11;86.10;99541.03;6235948;23;20084;-89
2022/10/19 01:07:03;;;;;;;9.48;2.50;;;;;;;23.79;87.65;99546.19;6208737;23;20020;-90
2022/10/19 01:09:29;;;;;;;8.05;2.38;;;;;;;24.30;86.63;99536.44;6207142;23;20083;-90
2022/10/19 01:12:14;;;;;;;9.32;2.78;;;;;;;24.38;86.10;99544.03;6207938;23;20588;-89
2022/10/19 01:15:09;;;;;;;11.20;2.90;;;;;;;25.18;83.21;99552.16;6210601;23;20008;-90
2022/10/19 01:18:05;;;;;;;10.70;3.05;;;;;;;22.94;90.21;99553.84;6232563;23;20016;-90
2022/10/19 01:21:06;;;;;;;13.10;3.03;;;;;;;23.88;88.31;99542.22;6209792;23;20513;-90
2022/10/19 01:23:35;;;;;;;13.82;3.58;;;;;;;23.86;87.61;99532.47;6209829;23;20015;-90
2022/10/19 01:26:22;;;;;;;11.70;3.63;;;;;;;23.39;86.91;99534.88;6209349;23;20011;-91
2022/10/19 01:29:07;;;;;;;12.65;3.97;;;;;;;23.48;88.98;99532.63;6209798;23;20380;-89
2022/10/19 01:31:46;;;;;;;12.73;4.20;;;;;;;21.90;94.54;99538.97;6208715;23;20118;-88
2022/10/19 01:34:34;;;;;;;13.13;3.60;;;;;;;23.67;88.68;99537.91;6237050;23;20036;-89
2022/10/19 01:37:09;;;;;;;12.07;4.05;;;;;;;23.51;87.83;99532.47;6209767;23;20012;-90
2022/10/19 01:39:53;;;;;;;13.07;3.97;;;;;;;23.64;88.25;99534.50;6235568;23;20264;-90
2022/10/19 01:42:31;;;;;;;13.70;4.38;;;;;;;23.27;90.19;99531.91;6208825;23;20000;-89
2022/10/19 01:45:04;;;;;;;13.25;4.07;;;;;;;23.40;89.00;99528.63;6236236;23;20111;-89
2022/10/19 01:47:36;;;;;;;13.25;3.75;;;;;;;23.54;88.21;99528.78;6233643;23;20048;-89
2022/10/19 01:50:09;;;;;;;11.45;3.80;;;;;;;24.80;83.47;99529.34;6235190;23;20031;-89
2022/10/19 01:52:37;;;;;;;11.27;3.85;;;;;;;25.37;81.57;99527.94;6236705;23;20003;-89
2022/10/19 01:55:04;;;;;;;12.98;3.38;;;;;;;25.00;82.08;99522.88;6236610;23;20015;-89
2022/10/19 01:57:35;;;;;;;13.32;3.50;;;;;;;25.18;79.46;99522.78;6237181;23;20004;-89
2022/10/19 02:00:06;;;;;;;10.13;2.65;;;;;;;25.17;81.52;99516.56;6203411;23;20004;-89
2022/10/19 02:02:35;;;;;;;10.38;2.50;;;;;;;24.16;84.89;99502.53;6236533;22;20016;-96
2022/10/19 02:05:04;;;;;;;11.85;2.60;;;;;;;24.57;81.33;99506.56;6217897;23;20000;-96
2022/10/19 02:07:48;;;;;;;9.88;2.42;;;;;;;24.11;84.19;99487.75;6218932;23;20045;-96
2022/10/19 02:10:13;;;;;;;9.88;2.92;;;;;;;24.01;84.14;99477.56;6219414;23;20008;-96
2022/10/19 02:12:40;;;;;;;9.98;2.65;;;;;;;23.98;85.00;99485.72;6219391;23;20138;-96
2022/10/19 02:15:11;;;;;;;9.38;2.33;;;;;;;23.57;84.96;99488.69;6218929;23;20003;-96
2022/10/19 02:17:42;;;;;;;8.65;2.50;;;;;;;24.31;83.07;99482.16;6219075;23;20031;-96
2022/10/19 02:20:08;;;;;;;8.48;2.42;;;;;;;23.76;86.18;99477.97;6219270;23;20003;-96
2022/10/19 02:22:34;;;;;;;11.57;2.40;;;;;;;22.98;88.60;99477.41;6219059;23;20066;-96
2022/10/19 02:25:00;;;;;;;12.20;2.88;;;;;;;23.48;86.61;99474.06;6220334;23;20039;-96
2022/10/19 02:27:25;;;;;;;9.30;2.40;;;;;;;24.87;82.45;99468.47;6218944;23;20060;-96
2022/10/19 02:29:52;;;;;;;10.10;2.53;;;;;;;24.21;84.43;99464.97;6218903;23;20423;-94
2022/10/19 02:32:21;;;;;;;10.00;2.70;;;;;;;23.44;85.40;99464.50;6218718;23;20000;-96
2022/10/19 02:34:47;;;;;;;11.38;2.50;;;;;;;24.30;83.84;99447.59;6219619;23;20003;-96
2022/10/19 02:37:12;;;;;;;9.75;2.50;;;;;;;23.49;84.30;99451.81;6218768;23;20016;-95
2022/10/19 02:39:38;;;;;;;9.50;2.50;;;;;;;24.58;84.10;99454.06;6219754;23;20426;-96
2022/10/19 02:42:12;;;;;;;10.98;2.40;;;;;;;22.21;93.23;99452.59;6218870;23;20019;-96
2022/10/19 02:44:40;;;;;;;;;;;;;;;22.23;91.90;99461.38;6220043;23;20004;-96
2022/10/19 02:47:12;;;;;;;11.27;2.65;;;;;;;23.02;89.38;99449.72;6218510;23;20148;-96
2022/10/19 02:49:38;;;;;;;8.45;2.50;;;;;;;21.27;94.26;99440.78;6218908;23;20453;-96
2022/10/19 02:52:07;;;;;;;13.60;2.88;;;;;;;22.98;90.89;99438.38;6218473;23;20163;-96
2022/10/19 02:54:34;;;;;;;10.07;2.60;;;;;;;21.86;92.21;99436.47;6219395;23;20078;-96
2022/10/19 02:56:59;;;;;;;10.57;2.25;;;;;;;22.47;92.92;99432.81;6218809;23;20031;-96
2022/10/19 02:59:25;;;;;;;9.60;2.60;;;;;;;22.77;90.21;99440.28;6217872;23;20008;-96
2022/10/19 03:01:58;;;;;;;9.40;2.22;;;;;;;22.98;88.91;99442.84;6234456;22;20023;-96
2022/10/19 03:04:25;;;;;;;10.63;2.22;;;;;;;22.07;91.03;99447.91;6249510;22;20011;-96
2022/10/19 03:06:50;;;;;;;10.57;2.47;;;;;;;23.64;88.06;99436.84;6250085;22;20232;-95
2022/10/19 03:09:16;;;;;;;11.52;2.40;;;;;;;23.38;87.61;99446.16;6249618;22;20418;-96
2022/10/19 03:11:45;;;;;;;8.88;2.30;;;;;;;23.16;88.43;99439.28;6249603;22;20045;-96
2022/10/19 03:14:11;;;;;;;8.80;2.20;;;;;;;22.32;90.56;99445.03;6248874;22;20082;-96
2022/10/19 03:16:36;;;;;;;13.50;2.53;;;;;;;23.99;86.20;99435.94;6249984;22;20038;-96
2022/10/19 03:19:02;;;;;;;8.60;2.30;;;;;;;22.06;91.74;99450.66;6248493;22;20011;-96
2022/10/19 03:21:27;;;;;;;8.32;2.10;;;;;;;23.48;86.72;99441.22;6250788;22;20058;-96
2022/10/19 03:23:53;;;;;;;10.20;2.25;;;;;;;23.06;89.22;99435.34;6250479;22;20011;-96
2022/10/19 03:26:19;;;;;;;10.32;2.15;;;;;;;22.72;89.98;99452.94;6251225;22;20497;-96
2022/10/19 03:28:44;;;;;;;9.32;1.95;;;;;;;23.76;86.41;99450.44;6249342;22;20019;-96
2022/10/19 03:31:10;;;;;;;10.00;2.20;;;;;;;23.15;88.31;99442.88;6249685;22;20014;-96
2022/10/19 03:33:37;;;;;;;8.73;1.98;;;;;;;23.80;85.37;99436.91;6250136;22;20019;-95
2022/10/19 03:36:33;;;;;;;9.25;1.80;;;;;;;23.02;88.55;99436.44;6250224;22;20061;-96
2022/10/19 03:39:01;;;;;;;9.77;2.35;;;;;;;23.82;86.79;99431.50;6220665;22;20003;-96
2022/10/19 03:41:51;;;;;;;9.23;1.90;;;;;;;22.64;88.94;99426.72;6249269;22;20051;-96
2022/10/19 03:44:17;;;;;;;8.63;1.90;;;;;;;23.75;86.74;99433.63;6231531;22;20227;-96
2022/10/19 03:46:42;;;;;;;7.70;1.90;;;;;;;24.48;83.70;99435.94;6250868;22;20422;-96
2022/10/19 03:49:08;;;;;;;9.82;2.22;;;;;;;22.97;87.80;99430.47;6249030;22;20023;-96
2022/10/19 03:51:35;;;;;;;6.50;1.60;;;;;;;23.01;87.88;99426.72;6249165;22;20012;-96
2022/10/19 03:54:04;;;;;;;6.82;1.70;;;;;;;23.40;85.35;99425.66;6250459;22;20000;-96
2022/10/19 03:56:34;;;;;;;7.70;1.67;;;;;;;24.03;84.89;99425.03;6250964;22;20011;-95
2022/10/19 03:59:01;;;;;;;8.65;2.17;;;;;;;25.55;80.61;99428.06;6250712;22;20003;-96
2022/10/19 04:01:34;;;;;;;9.75;2.20;;;;;;;23.78;83.50;99437.94;6250842;22;20016;-96
2022/10/19 04:04:02;;;;;;;8.65;1.67;;;;;;;24.51;82.67;99440.25;6251002;22;20406;-96
2022/10/19 04:06:30;;;;;;;11.90;2.20;;;;;;;24.59;80.80;99442.47;6252453;22;20082;-96
2022/10/19 04:08:57;;;;;;;8.68;1.80;;;;;;;23.76;82.95;99422.03;6251859;22;20086;-96
2022/10/19 04:11:26;;;;;;;10.00;1.70;;;;;;;24.37;83.37;99433.88;6250421;22;20000;-96
2022/10/19 04:13:53;;;;;;;8.48;1.50;;;;;;;23.92;83.12;99414.09;6251447;22;19996;-96
2022/10/19 04:16:20;;;;;;;10.02;1.67;;;;;;;24.81;81.44;99415.47;6249925;22;20007;-96
2022/10/19 04:18:46;;;;;;;6.38;1.40;;;;;;;23.95;83.41;99408.63;6248420;22;20014;-96
2022/10/19 04:21:34;;;;;;;5.30;1.38;;;;;;;24.14;80.43;99420.94;6249246;22;20003;-96
2022/10/19 04:24:00;;;;;;;9.23;2.00;;;;;;;22.84;86.27;99411.59;6250740;22;20003;-96
2022/10/19 04:26:26;;;;;;;7.78;1.60;;;;;;;23.59;85.98;99403.41;6250578;22;20102;-96
2022/10/19 04:29:00;;;;;;;8.55;1.63;;;;;;;23.88;83.16;99395.72;6250076;22;20011;-95
2022/10/19 04:31:26;;;;;;;8.73;1.60;;;;;;;23.38;85.86;99408.06;6249519;22;20018;-95
2022/10/19 04:33:52;;;;;;;6.22;1.00;;;;;;;22.78;85.94;99407.44;6250632;22;20087;-95
2022/10/19 04:36:18;;;;;;;9.55;1.35;;;;;;;22.68;87.96;99404.34;6276411;22;20034;-96
2022/10/19 04:38:43;;;;;;;4.45;1.08;;;;;;;23.52;85.59;99403.75;6248512;22;20041;-96
2022/10/19 04:41:11;;;;;;;3.88;0.85;;;;;;;24.10;83.03;99406.91;6250135;22;20380;-96
2022/10/19 04:43:37;;;;;;;5.70;1.10;;;;;;;23.71;84.70;99412.56;6248884;22;20011;-95
2022/10/19 04:46:08;;;;;;;6.95;1.20;;;;;;;24.70;81.46;99406.28;6249470;22;20056;-95
2022/10/19 04:48:35;;;;;;;7.57;1.50;;;;;;;23.28;85.73;99391.69;6247896;22;20035;-96
2022/10/19 04:51:02;;;;;;;7.80;1.75;;;;;;;23.13;87.58;99399.53;6248907;22;20081;-95
2022/10/19 04:53:27;;;;;;;10.40;1.90;;;;;;;22.60;87.85;99392.38;6248819;22;20012;-96
2022/10/19 04:55:53;;;;;;;8.38;2.08;;;;;;;23.67;84.86;99388.78;6249463;22;20014;-95
2022/10/19 04:58:18;;;;;;;11.23;2.47;;;;;;;22.32;88.60;99377.72;6249069;22;20012;-95
2022/10/19 05:00:48;;;;;;;8.40;2.05;;;;;;;22.44;90.31;99390.44;6246581;22;20018;-96
2022/10/19 05:03:14;;;;;;;7.22;2.00;;;;;;;23.84;85.61;99384.31;6188979;23;20027;-95
2022/10/19 05:05:39;;;;;;;9.13;2.03;;;;;;;22.32;89.70;99383.91;6188584;23;20027;-96
2022/10/19 05:08:05;;;;;;;8.70;1.88;;;;;;;24.21;83.91;99369.03;6187657;23;20431;-96
2022/10/19 05:10:30;;;;;;;9.30;1.98;;;;;;;20.85;86.04;99378.88;6188024;23;20510;-96
2022/10/19 05:12:56;;;;;;;7.72;2.03;;;;;;;23.68;85.35;99363.84;6189196;23;20103;-96
2022/10/19 05:15:21;;;;;;;9.00;2.15;;;;;;;22.65;88.74;99366.44;6188928;23;20005;-96
2022/10/19 05:17:47;;;;;;;7.25;1.92;;;;;;;21.84;90.38;99371.97;6188543;23;20000;-96
2022/10/19 05:20:12;;;;;;;10.45;1.70;;;;;;;;;;6188267;23;20012;-96
2022/10/19 05:22:38;;;;;;;11.52;2.10;;;;;;;22.31;89.91;99375.97;6188588;23;20391;-96
2022/10/19 05:25:06;;;;;;;5.50;1.40;;;;;;;21.29;92.49;99391.16;6190339;23;20055;-96
2022/10/19 05:27:32;;;;;;;6.32;1.30;;;;;;;21.67;91.89;99380.72;6190119;23;20024;-96
2022/10/19 05:29:58;;;;;;;7.22;1.42;;;;;;;22.35;90.42;99379.41;6190641;23;20259;-96
2022/10/19 05:32:23;;;;;;;5.35;1.40;;;;;;;22.13;90.50;99369.78;6190433;23;20423;-96
2022/10/19 05:34:49;;;;;;;8.38;1.30;;;;;;;21.16;94.64;99363.47;6191552;23;20419;-96
2022/10/19 05:37:17;;;;;;;6.30;1.23;;;;;;;20.87;96.19;99362.88;6191230;23;20087;-96
2022/10/19 05:39:42;;;;;;;6.22;1.17;;;;;;;22.72;90.15;99361.69;6190128;23;20009;-96
2022/10/19 05:42:08;;;;;;;9.73;1.30;;;;;;;23.09;88.62;99360.69;6190184;23;20100;-96
2022/10/19 05:44:36;;;;;;;4.55;1.20;;;;;;;23.54;87.32;99354.88;6190152;23;20393;-96
2022/10/19 05:47:01;;;;;;;4.82;1.20;;;;;;;22.47;90.55;99344.25;6190725;23;20027;-96
2022/10/19 05:49:27;;;;;;;10.90;1.42;;;;;;;23.93;84.74;99340.38;6189909;23;20004;-96
2022/10/19 05:51:53;;;;;;;6.85;1.40;;;;;;;23.11;87.67;99344.63;6190242;23;20021;-96
2022/10/19 05:54:19;;;;;;;5.07;1.30;;;;;;;23.28;85.90;99346.44;6188553;23;20004;-96
2022/10/19 05:56:45;;;;;;;6.78;1.30;;;;;;;22.64;87.79;99344.31;6189240;23;20186;-96
2022/10/19 05:59:16;;;;;;;11.75;1.48;;;;;;;22.36;89.69;99350.09;6189184;23;20005;-95
2022/10/19 06:01:43;;;;;;;7.00;1.35;;;;;;;23.50;86.56;99346.19;6208184;22;20015;-94
2022/10/19 06:04:09;;;;;;;8.38;1.40;;;;;;;23.27;86.34;99336.75;6275989;22;20004;-96
2022/10/19 06:06:45;;;;;;;10.65;1.65;;;;;;;23.74;87.07;99317.38;6249698;22;20018;-96
2022/10/19 06:09:11;;;;;;;6.75;1.15;;;;;;;22.72;87.67;99319.13;6251835;22;20102;-96
2022/10/19 06:11:39;;;;;;;9.07;1.80;;;;;;;22.51;88.41;99327.22;6249458;22;20003;-96
2022/10/19 06:14:21;;;;;;;8.98;1.67;;;;;;;23.68;86.04;99339.03;6252231;22;20011;-96
2022/10/19 06:16:47;;;;;;;7.28;1.30;;;;;;;22.76;87.13;99318.03;6259810;22;20012;-96
2022/10/19 06:19:18;;;;;;;6.25;1.30;;;;;;;23.62;85.93;99323.34;6255850;22;20091;-96
2022/10/19 06:21:45;;;;;;;8.50;1.08;;;;;;;23.43;84.15;99321.69;6257543;22;19995;-96
2022/10/19 06:24:14;;;;;;;10.43;1.33;;;;;;;24.41;84.14;99332.38;6250867;22;20013;-96
2022/10/19 06:26:40;;;;;;;6.82;1.40;;;;;;;22.82;86.84;99329.19;6252748;22;20015;-96
2022/10/19 06:29:06;;;;;;;6.47;1.25;;;;;;;21.96;91.23;99341.31;6250041;22;20329;-96
2022/10/19 06:31:34;;;;;;;6.97;1.27;;;;;;;24.22;83.36;99336.09;6247997;22;20043;-96
2022/10/19 06:34:14;;;;;;;8.65;1.27;;;;;;;23.71;83.39;99327.34;6250643;22;20015;-94
2022/10/19 06:36:39;;;;;;;8.20;1.30;;;;;;;23.46;84.47;99326.00;6277853;22;19999;-96
2022/10/19 06:39:05;;;;;;;6.75;1.67;;;;;;;24.49;83.38;99319.47;6251176;22;20029;-96
2022/10/19 06:41:33;;;;;;;7.07;1.17;;;;;;;24.03;84.18;99314.94;6250744;22;20008;-96
2022/10/19 06:43:58;;;;;;;5.70;1.20;;;;;;;24.37;82.76;99332.56;6250868;22;20022;-95
2022/10/19 06:46:25;;;;;;;3.95;1.00;;;;;;;23.21;84.40;99313.13;6250341;22;20035;-94
2022/10/19 06:48:59;;;;;;;8.25;1.52;;;;;;;22.65;87.58;99321.22;6250271;22;20012;-96
2022/10/19 06:51:30;;;;;;;12.05;1.80;;;;;;;22.70;87.81;99308.56;6249976;22;20004;-96
2022/10/19 06:53:56;;;;;;;9.05;1.50;;;;;;;24.30;85.27;99317.88;6250302;22;20011;-96
2022/10/19 06:56:28;;;;;;;6.80;1.25;;;;;;;23.94;84.03;99304.78;6249301;22;20445;-96
2022/10/19 06:58:54;;;;;;;6.18;1.17;;;;;;;24.97;80.97;99308.69;6248177;22;20705;-96
2022/10/19 07:01:20;;;;;;;7.78;1.40;;;;;;;24.14;84.77;99301.03;6248596;22;20015;-95
2022/10/19 07:03:51;;;;;;;10.10;1.55;;;;;;;25.70;78.41;99306.03;6276034;22;20103;-96
2022/10/19 07:06:25;;;;;;;8.80;1.33;;;;;;;23.64;84.83;99287.72;6248785;22;20016;-95
2022/10/19 07:08:52;;;;;;;6.38;1.35;;;;;;;22.33;88.37;99295.28;6249221;22;20031;-96
2022/10/19 07:11:19;;;;;;;5.30;1.17;;;;;;;22.17;91.89;99281.88;6249347;22;20039;-96
2022/10/19 07:13:44;;;;;;;7.05;1.30;;;;;;;23.22;88.39;99283.78;6247580;22;20012;-96
2022/10/19 07:16:13;;;;;;;7.25;1.27;;;;;;;22.96;89.92;99277.13;6277068;22;20076;-96
2022/10/19 07:18:40;;;;;;;5.72;1.40;;;;;;;21.79;93.63;99275.72;6249876;22;20011;-96
2022/10/19 07:21:10;;;;;;;6.20;1.27;;;;;;;23.20;88.69;99267.03;6276809;22;20426;-96
2022/10/19 07:23:38;;;;;;;6.47;1.42;;;;;;;23.71;85.77;99269.59;6249518;22;20067;-96
2022/10/19 07:26:22;;;;;;;9.90;1.95;;;;;;;24.28;85.53;99262.94;6249685;22;20082;-96
2022/10/19 07:29:01;;;;;;;11.38;2.50;;;;;;;23.52;86.55;99270.63;6250246;22;20010;-96
2022/10/19 07:31:29;;;;;;;6.20;1.33;;;;;;;22.67;89.42;99271.50;6249551;22;20010;-96
2022/10/19 07:33:56;;;;;;;6.60;1.33;;;;;;;22.96;91.29;99264.66;6249478;22;20012;-96
2022/10/19 07:36:23;;;;;;;6.13;1.30;;;;;;;24.30;86.31;99263.69;6250683;22;19995;-96
2022/10/19 07:38:48;;;;;;;6.68;1.17;;;;;;;22.47;90.57;99257.41;6249265;22;20086;-96
2022/10/19 07:41:16;;;;;;;5.47;1.10;;;;;;;22.61;91.03;99253.19;6249476;22;20464;-96
2022/10/19 07:43:45;;;;;;;9.07;1.20;;;;;;;23.33;88.51;99245.94;6249822;22;20014;-96
2022/10/19 07:46:13;;;;;;;6.43;1.25;;;;;;;22.64;88.85;99256.56;6250910;22;20003;-96
2022/10/19 07:48:39;;;;;;;7.85;1.13;;;;;;;22.47;91.77;99257.41;6254191;22;20015;-96
2022/10/19 07:51:07;;;;;;;8.27;1.15;;;;;;;22.55;90.93;99249.06;6248842;22;20031;-96
2022/10/19 07:53:33;;;;;;;5.07;1.20;;;;;;;24.57;85.10;99253.22;6248375;22;20012;-96
2022/10/19 07:56:03;;;;;;;10.25;1.63;;;;;;;25.16;81.65;99252.41;6249458;22;20008;-96
2022/10/19 07:58:29;;;;;;;7.28;1.40;;;;;;;25.68;82.02;99243.00;6249830;22;20485;-96
2022/10/19 08:01:02;;;;;;;9.80;1.30;;;;;;;25.29;82.15;99250.72;6248046;22;20042;-96
2022/10/19 08:03:31;;;;;;;11.73;1.25;;;;;;;25.39;81.13;99248.34;6245250;22;20008;-94
2022/10/19 08:06:01;;;;;;;5.82;1.15;;;;;;;25.12;82.04;99250.88;6246339;22;20014;-96
2022/10/19 08:08:27;;;;;;;6.97;1.38;;;;;;;25.51;80.49;99242.25;6245716;22;20035;-96
2022/10/19 08:10:53;;;;;;;7.13;1.20;;;;;;;23.73;86.26;99254.41;6247394;22;20035;-95
2022/10/19 08:13:19;;;;;;;7.47;1.10;;;;;;;24.79;83.58;99247.50;6253505;22;20018;-96
2022/10/19 08:15:44;;;;;;;7.70;1.50;;;;;;;24.29;85.62;99238.84;6249138;22;20299;-96
2022/10/19 08:18:10;;;;;;;9.07;1.30;;;;;;;23.13;90.20;99245.22;6255183;22;20007;-96
2022/10/19 08:20:36;;;;;;;7.47;1.55;;;;;;;24.52;85.98;99240.19;6254170;22;20011;-96
2022/10/19 08:23:02;;;;;;;7.85;1.30;;;;;;;23.73;87.32;99238.44;6256060;22;19996;-96
2022/10/19 08:25:42;;;;;;;7.43;1.27;;;;;;;23.39;89.51;99247.41;6246951;22;20297;-96
2022/10/19 08:28:07;;;;;;;5.05;1.33;;;;;;;23.58;89.70;99245.47;6247923;22;20004;-96
2022/10/19 08:30:38;;;;;;;7.43;1.27;;;;;;;24.02;88.59;99218.19;6254843;22;20458;-96
2022/10/19 08:33:30;;;;;;;6.32;1.20;;;;;;;23.35;90.82;99228.97;6258574;22;20016;-96
2022/10/19 08:35:56;;;;;;;5.75;1.13;;;;;;;23.83;87.08;99234.31;6261358;22;19996;-95
2022/10/19 08:38:21;;;;;;;6.50;0.98;;;;;;;23.87;87.58;99229.69;6251578;22;20049;-96
2022/10/19 08:40:46;;;;;;;6.47;1.30;;;;;;;22.70;92.09;99226.16;6251656;22;20434;-96
2022/10/19 08:43:34;;;;;;;5.00;1.00;;;;;;;23.74;89.50;99237.47;6265519;22;20079;-96
2022/10/19 08:46:19;;;;;;;6.65;1.10;;;;;;;23.18;92.51;99235.16;6255664;22;20004;-96
2022/10/19 08:48:45;;;;;;;6.53;1.25;;;;;;;23.04;92.08;99229.69;6247344;22;20502;-95
2022/10/19 08:51:12;;;;;;;7.57;1.25;;;;;;;22.95;92.72;99235.50;6248868;22;20035;-95
2022/10/19 08:54:04;;;;;;;7.28;1.35;;;;;;;24.01;89.33;99232.44;6248661;22;20014;-96
2022/10/19 08:56:34;;;;;;;6.43;1.17;;;;;;;22.78;92.22;99223.97;6249464;22;20008;-96
2022/10/19 08:59:03;;;;;;;9.95;1.17;;;;;;;23.44;93.79;99232.91;6257282;22;20006;-96
2022/10/19 09:01:47;;;;;;;4.93;1.00;;;;;;;22.97;93.19;99220.34;6249670;23;20101;-96
2022/10/19 09:04:58;;;;;;;8.82;1.42;;;;;;;22.47;95.11;99220.19;6233456;23;20008;-96
2022/10/19 09:07:33;;;;;;;6.63;1.08;;;;;;;21.86;100.00;99223.22;6258508;23;20091;-96
2022/10/19 09:10:14;;;;;;;7.20;1.17;;;;;;;21.91;100.00;99226.50;6248523;23;20015;-95
2022/10/19 09:13:03;;;;;;;6.68;1.38;;;;;;;22.55;96.14;99209.19;6240384;23;20004;-95
2022/10/19 09:15:41;;;;;;;9.95;1.20;;;;;;;23.62;92.04;99219.50;6241981;23;20004;-94
2022/10/19 09:18:19;;;;;;;6.65;1.17;;;;;;;23.74;92.17;99216.16;6239855;23;20024;-93
2022/10/19 09:20:48;;;;;;;5.45;1.10;;;;;;;23.40;92.74;99217.22;6243439;23;20457;-94
2022/10/19 09:23:38;;;;;;;6.55;1.20;;;;;;;23.35;91.31;99201.47;6245808;23;20012;-96
2022/10/19 09:26:11;;;;;;;8.27;1.50;;;;;;;24.38;89.69;99197.47;6245531;23;20008;-94
2022/10/19 09:28:48;;;;;;;9.02;1.60;;;;;;;25.62;85.46;99192.63;6247060;23;20007;-96
2022/10/19 09:31:25;;;;;;;9.07;1.45;;;;;;;24.95;86.05;99195.88;6245278;23;20008;-96
2022/10/19 09:33:56;;;;;;;7.57;1.60;;;;;;;24.27;90.38;99198.09;6245446;23;20050;-94
2022/10/19 09:36:23;;;;;;;13.70;1.80;;;;;;;23.50;92.23;99205.94;6247675;23;20000;-95
2022/10/19 09:38:50;;;;;;;5.28;1.17;;;;;;;24.06;93.66;99194.88;6243910;23;20004;-94
2022/10/19 09:41:19;;;;;;;7.43;1.48;;;;;;;25.18;87.87;99199.81;6244212;23;20092;-96
2022/10/19 09:43:52;;;;;;;10.88;1.55;;;;;;;26.39;84.58;99191.13;6243577;23;21156;-96
2022/10/19 09:46:32;;;;;;;10.00;1.88;;;;;;;25.72;82.88;99175.91;6246063;23;20011;-96
2022/10/19 09:49:00;;;;;;;9.68;1.70;;;;;;;25.26;87.31;99186.84;6244466;23;20015;-96
2022/10/19 09:51:39;;;;;;;9.55;1.42;;;;;;;25.02;87.08;99192.75;6242006;23;20327;-93
2022/10/19 09:54:05;;;;;;;7.38;1.40;;;;;;;26.58;82.53;99196.09;6243455;23;20008;-96
2022/10/19 09:56:37;;;;;;;9.00;1.60;;;;;;;25.38;85.63;99186.06;6248853;23;20115;-96
2022/10/19 09:59:03;;;;;;;9.10;1.45;;;;;;;26.26;82.75;99186.69;6262941;23;20012;-96
2022/10/19 10:01:44;;;;;;;8.60;1.50;;;;;;;24.67;87.11;99185.06;6244693;22;20020;-93
2022/10/19 10:04:15;;;;;;;8.73;2.20;;;;;;;26.66;83.19;99184.00;6239743;23;20069;-94
2022/10/19 10:06:43;;;;;;;8.52;1.58;;;;;;;27.02;81.61;99190.44;6240558;23;20002;-92
2022/10/19 10:09:16;;;;;;;6.28;1.45;;;;;;;25.50;85.42;99179.09;6241050;23;20004;-95
2022/10/19 10:11:44;;;;;;;8.60;1.40;;;;;;;26.82;79.89;99187.34;6240036;23;20007;-96
2022/10/19 10:14:26;;;;;;;7.80;1.50;;;;;;;25.60;86.49;99175.84;6239391;23;20240;-94
2022/10/19 10:17:17;;;;;;;10.82;1.55;;;;;;;26.07;84.77;99161.22;6242211;23;20016;-96
2022/10/19 10:20:18;;;;;;;11.65;2.10;;;;;;;24.98;86.47;99158.34;6224624;23;20028;-95
2022/10/19 10:22:51;;;;;;;9.80;1.45;;;;;;;24.64;89.78;99150.59;6242079;23;20015;-95
2022/10/19 10:25:18;;;;;;;8.00;1.30;;;;;;;24.76;87.33;99154.34;6240955;23;20004;-96
2022/10/19 10:28:13;;;;;;;10.30;1.83;;;;;;;24.71;90.05;99156.44;6242583;23;20008;-96
2022/10/19 10:30:39;;;;;;;7.22;1.60;;;;;;;25.01;88.39;99155.47;6242275;23;20016;-94
2022/10/19 10:33:05;;;;;;;9.20;1.73;;;;;;;23.71;95.59;99140.94;6240995;23;20469;-95
2022/10/19 10:35:36;;;;;;;10.38;1.52;;;;;;;24.72;90.11;99147.47;6243202;23;20008;-95
2022/10/19 10:38:13;;;;;;;7.40;1.65;;;;;;;24.50;91.03;99143.41;6241271;23;20027;-95
2022/10/19 10:40:48;;;;;;;9.02;1.52;;;;;;;25.19;88.40;99143.66;6241582;23;20004;-96
2022/10/19 10:43:17;;;;;;;10.32;1.70;;;;;;;22.60;96.21;99140.72;6240491;23;20008;-96
2022/10/19 10:45:50;;;;;;;11.20;1.80;;;;;;;24.03;94.93;99139.94;6240823;23;20012;-95
2022/10/19 10:48:35;;;;;;;11.68;1.80;;;;;;;24.75;90.85;99139.28;6242718;23;20087;-96
2022/10/19 10:51:01;;;;;;;5.75;1.60;;;;;;;24.28;89.47;99132.31;6243442;23;20027;-96
2022/10/19 10:53:31;;;;;;;8.38;1.60;;;;;;;25.00;89.37;99127.94;6241824;23;20030;-96
2022/10/19 10:55:57;;;;;;;10.27;1.92;;;;;;;26.13;85.47;99130.53;6241206;23;20261;-95
2022/10/19 10:58:34;;;;;;;6.90;1.50;;;;;;;24.68;91.55;99136.13;6240262;23;20030;-95
2022/10/19 11:01:05;;;;;;;9.73;1.83;;;;;;;23.37;94.92;99126.84;6241845;23;20020;-94
2022/10/19 11:03:32;;;;;;;8.63;1.48;;;;;;;25.25;88.96;99128.19;6241315;23;20111;-95
2022/10/19 11:06:04;;;;;;;11.23;1.90;;;;;;;25.81;86.99;99115.66;6241364;23;20133;-94
2022/10/19 11:08:55;;;;;;;8.60;1.73;;;;;;;24.93;88.17;99110.59;6241808;23;20020;-96
2022/10/19 11:11:35;;;;;;;7.32;1.50;;;;;;;26.11;85.64;99114.59;6239606;23;20035;-93
2022/10/19 11:14:25;;;;;;;7.43;1.50;;;;;;;25.08;87.89;99116.78;6241132;23;20000;-94
2022/10/19 11:16:54;;;;;;;8.90;1.95;;;;;;;25.48;86.21;99105.38;6240739;23;20007;-96
2022/10/19 11:19:26;;;;;;;12.07;1.92;;;;;;;26.08;86.10;99098.75;6241279;23;20692;-94
2022/10/19 11:22:22;;;;;;;10.63;1.95;;;;;;;25.96;86.63;99104.94;6240487;23;20083;-93
2022/10/19 11:25:27;;;;;;;8.25;1.58;;;;;;;25.81;87.92;99094.28;6239251;23;20337;-95
2022/10/19 11:28:26;;;;;;;9.32;1.73;;;;;;;26.43;86.00;99094.63;6242176;23;20392;-93
2022/10/19 11:30:58;;;;;;;7.15;1.67;;;;;;;24.55;90.04;99092.47;6242479;23;20004;-95
2022/10/19 11:33:40;;;;;;;8.02;1.70;;;;;;;25.43;85.49;99083.47;6243687;23;20038;-93
2022/10/19 11:36:31;;;;;;;5.95;1.55;;;;;;;24.99;87.62;99085.34;6240525;23;20091;-94
2022/10/19 11:39:23;;;;;;;11.60;1.98;;;;;;;25.37;89.63;99076.72;6241422;23;20434;-95
2022/10/19 11:42:27;;;;;;;9.38;1.75;;;;;;;25.95;86.13;99076.47;6233428;23;20036;-95
2022/10/19 11:44:52;;;;;;;;;;;;;;;27.19;80.70;99058.91;6160313;23;20051;-94
2022/10/19 11:47:28;;;;;;;7.03;1.63;;;;;;;24.64;89.06;99051.94;6241677;23;19904;-93
2022/10/19 11:50:29;;;;;;;8.30;1.67;;;;;;;25.80;84.50;99040.97;6241640;23;20046;-95